sensor_id;sensor_type;location;lat;lon;timestamp;P1;durP1;ratioP1;P2;durP2;ratioP2
58689;SDS011;44470;53.206;-6.106;2023-03-30T00:00:06;12.40;;;5.00;;
58689;SDS011;44470;53.206;-6.106;2023-03-30T00:02:52;13.63;;;5.35;;
58689;SDS011;44470;53.206;-6.106;2023-03-30T00:05:18;10.55;;;4.80;;
58689;SDS011;44470;53.206;-6.106;2023-03-30T00:07:44;8.35;;;4.78;;
58689;SDS011;44470;53.206;-6.106;2023-03-30T00:10:11;11.60;;;4.45;;
58689;SDS011;44470;53.206;-6.106;2023-03-30T00:12:38;10.57;;;4.55;;
58689;SDS011;44470;53.206;-6.106;2023-03-30T00:15:06;11.13;;;4.55;;
58689;SDS011;44470;53.206;-6.106;2023-03-30T00:17:33;8.57;;;4.10;;
58689;SDS011;44470;53.206;-6.106;2023-03-30T00:19:59;10.73;;;4.13;;
58689;SDS011;44470;53.206;-6.106;2023-03-30T00:22:32;9.90;;;4.30;;
58689;SDS011;44470;53.206;-6.106;2023-03-30T00:24:58;10.02;;;3.90;;
58689;SDS011;44470;53.206;-6.106;2023-03-30T00:27:24;10.98;;;4.15;;
58689;SDS011;44470;53.206;-6.106;2023-03-30T00:29:49;9.80;;;4.47;;
58689;SDS011;44470;53.206;-6.106;2023-03-30T00:32:15;10.07;;;4.10;;
58689;SDS011;44470;53.206;-6.106;2023-03-30T00:34:41;9.63;;;4.20;;
58689;SDS011;44470;53.206;-6.106;2023-03-30T00:37:06;8.80;;;3.70;;
58689;SDS011;44470;53.206;-6.106;2023-03-30T00:39:32;9.00;;;3.65;;
58689;SDS011;44470;53.206;-6.106;2023-03-30T00:41:57;10.05;;;4.13;;
58689;SDS011;44470;53.206;-6.106;2023-03-30T00:47:27;8.02;;;3.90;;
58689;SDS011;44470;53.206;-6.106;2023-03-30T00:49:53;8.00;;;3.30;;
58689;SDS011;44470;53.206;-6.106;2023-03-30T00:52:19;10.38;;;3.78;;
58689;SDS011;44470;53.206;-6.106;2023-03-30T00:54:52;6.72;;;3.33;;
58689;SDS011;44470;53.206;-6.106;2023-03-30T00:57:21;6.50;;;3.00;;
58689;SDS011;44470;53.206;-6.106;2023-03-30T00:59:49;8.85;;;3.35;;
58689;SDS011;44470;53.206;-6.106;2023-03-30T01:02:17;6.47;;;3.50;;
58689;SDS011;44470;53.206;-6.106;2023-03-30T01:04:46;5.70;;;2.97;;
58689;SDS011;44470;53.206;-6.106;2023-03-30T01:07:15;7.35;;;3.50;;
58689;SDS011;44470;53.206;-6.106;2023-03-30T01:09:41;7.13;;;2.90;;
58689;SDS011;44470;53.206;-6.106;2023-03-30T01:12:07;6.80;;;3.47;;
58689;SDS011;44470;53.206;-6.106;2023-03-30T01:14:34;6.55;;;3.00;;
58689;SDS011;44470;53.206;-6.106;2023-03-30T01:17:11;8.52;;;3.53;;
58689;SDS011;44470;53.206;-6.106;2023-03-30T01:26:12;5.82;;;3.03;;
58689;SDS011;44470;53.206;-6.106;2023-03-30T01:28:36;6.43;;;3.15;;
58689;SDS011;44470;53.206;-6.106;2023-03-30T01:40:17;5.65;;;3.13;;
58689;SDS011;44470;53.206;-6.106;2023-03-30T01:45:56;6.50;;;3.13;;
58689;SDS011;44470;53.206;-6.106;2023-03-30T01:48:40;5.68;;;2.95;;
58689;SDS011;44470;53.206;-6.106;2023-03-30T01:51:25;5.45;;;2.90;;
58689;SDS011;44470;53.206;-6.106;2023-03-30T01:56:35;5.78;;;2.63;;
58689;SDS011;44470;53.206;-6.106;2023-03-30T01:59:09;4.15;;;2.47;;
58689;SDS011;44470;53.206;-6.106;2023-03-30T02:01:38;6.13;;;2.85;;
58689;SDS011;44470;53.206;-6.106;2023-03-30T02:04:07;5.97;;;2.83;;
58689;SDS011;44470;53.206;-6.106;2023-03-30T02:06:38;5.97;;;2.67;;
58689;SDS011;44470;53.206;-6.106;2023-03-30T02:09:11;6.55;;;2.70;;
58689;SDS011;44470;53.206;-6.106;2023-03-30T02:11:46;3.65;;;2.22;;
58689;SDS011;44470;53.206;-6.106;2023-03-30T02:14:15;3.70;;;2.28;;
58689;SDS011;44470;53.206;-6.106;2023-03-30T02:16:46;3.30;;;2.10;;
58689;SDS011;44470;53.206;-6.106;2023-03-30T02:19:13;4.57;;;2.35;;
58689;SDS011;44470;53.206;-6.106;2023-03-30T02:21:40;5.45;;;2.53;;
58689;SDS011;44470;53.206;-6.106;2023-03-30T02:24:08;3.60;;;2.40;;
58689;SDS011;44470;53.206;-6.106;2023-03-30T02:26:45;5.15;;;2.42;;
58689;SDS011;44470;53.206;-6.106;2023-03-30T02:29:13;4.38;;;2.45;;
58689;SDS011;44470;53.206;-6.106;2023-03-30T02:31:41;3.80;;;2.15;;
58689;SDS011;44470;53.206;-6.106;2023-03-30T02:34:43;3.28;;;2.22;;
58689;SDS011;44470;53.206;-6.106;2023-03-30T02:37:12;4.68;;;1.80;;
58689;SDS011;44470;53.206;-6.106;2023-03-30T02:48:41;4.40;;;1.92;;
58689;SDS011;44470;53.206;-6.106;2023-03-30T02:54:04;3.47;;;1.90;;
58689;SDS011;44470;53.206;-6.106;2023-03-30T03:02:36;4.13;;;2.10;;
58689;SDS011;44470;53.206;-6.106;2023-03-30T03:05:21;2.78;;;1.83;;
58689;SDS011;44470;53.206;-6.106;2023-03-30T03:07:54;3.47;;;1.70;;
58689;SDS011;44470;53.206;-6.106;2023-03-30T03:10:21;5.32;;;2.30;;
58689;SDS011;44470;53.206;-6.106;2023-03-30T03:12:47;3.33;;;1.85;;
58689;SDS011;44470;53.206;-6.106;2023-03-30T03:15:13;2.65;;;1.80;;
58689;SDS011;44470;53.206;-6.106;2023-03-30T03:17:55;3.17;;;1.80;;
58689;SDS011;44470;53.206;-6.106;2023-03-30T03:20:22;2.83;;;1.75;;
58689;SDS011;44470;53.206;-6.106;2023-03-30T03:22:48;3.22;;;1.83;;
58689;SDS011;44470;53.206;-6.106;2023-03-30T03:25:13;4.85;;;2.03;;
58689;SDS011;44470;53.206;-6.106;2023-03-30T03:27:59;3.58;;;2.13;;
58689;SDS011;44470;53.206;-6.106;2023-03-30T03:30:31;4.00;;;1.80;;
58689;SDS011;44470;53.206;-6.106;2023-03-30T03:33:04;3.17;;;1.85;;
58689;SDS011;44470;53.206;-6.106;2023-03-30T03:35:31;3.78;;;1.88;;
58689;SDS011;44470;53.206;-6.106;2023-03-30T03:37:58;4.35;;;1.83;;
58689;SDS011;44470;53.206;-6.106;2023-03-30T03:40:24;4.30;;;1.60;;
58689;SDS011;44470;53.206;-6.106;2023-03-30T03:42:50;4.50;;;1.85;;
58689;SDS011;44470;53.206;-6.106;2023-03-30T03:45:16;3.35;;;1.73;;
58689;SDS011;44470;53.206;-6.106;2023-03-30T03:48:00;3.47;;;1.75;;
58689;SDS011;44470;53.206;-6.106;2023-03-30T03:50:41;6.53;;;2.10;;
58689;SDS011;44470;53.206;-6.106;2023-03-30T03:53:09;12.52;;;2.53;;
58689;SDS011;44470;53.206;-6.106;2023-03-30T03:55:35;13.00;;;2.30;;
58689;SDS011;44470;53.206;-6.106;2023-03-30T03:58:01;7.25;;;2.30;;
58689;SDS011;44470;53.206;-6.106;2023-03-30T04:00:28;11.63;;;2.30;;
58689;SDS011;44470;53.206;-6.106;2023-03-30T04:02:55;5.70;;;1.63;;
58689;SDS011;44470;53.206;-6.106;2023-03-30T04:05:21;5.95;;;1.73;;
58689;SDS011;44470;53.206;-6.106;2023-03-30T04:07:47;7.60;;;1.98;;
58689;SDS011;44470;53.206;-6.106;2023-03-30T04:10:13;4.20;;;2.03;;
58689;SDS011;44470;53.206;-6.106;2023-03-30T04:12:48;6.03;;;1.92;;
58689;SDS011;44470;53.206;-6.106;2023-03-30T04:15:34;5.97;;;1.92;;
58689;SDS011;44470;53.206;-6.106;2023-03-30T04:18:11;6.18;;;2.10;;
58689;SDS011;44470;53.206;-6.106;2023-03-30T04:21:02;9.20;;;1.98;;
58689;SDS011;44470;53.206;-6.106;2023-03-30T04:23:40;4.03;;;1.83;;
58689;SDS011;44470;53.206;-6.106;2023-03-30T04:26:28;4.18;;;1.90;;
58689;SDS011;44470;53.206;-6.106;2023-03-30T04:29:26;5.88;;;2.00;;
58689;SDS011;44470;53.206;-6.106;2023-03-30T04:32:16;4.72;;;1.60;;
58689;SDS011;44470;53.206;-6.106;2023-03-30T04:35:14;6.45;;;1.70;;
58689;SDS011;44470;53.206;-6.106;2023-03-30T04:38:06;4.47;;;1.67;;
58689;SDS011;44470;53.206;-6.106;2023-03-30T04:40:43;3.72;;;1.58;;
58689;SDS011;44470;53.206;-6.106;2023-03-30T04:43:29;3.78;;;1.70;;
58689;SDS011;44470;53.206;-6.106;2023-03-30T04:46:21;5.57;;;1.80;;
58689;SDS011;44470;53.206;-6.106;2023-03-30T04:48:55;5.40;;;1.50;;
58689;SDS011;44470;53.206;-6.106;2023-03-30T04:51:38;3.33;;;1.45;;
58689;SDS011;44470;53.206;-6.106;2023-03-30T04:54:23;4.53;;;1.60;;
58689;SDS011;44470;53.206;-6.106;2023-03-30T04:57:09;3.20;;;1.48;;
58689;SDS011;44470;53.206;-6.106;2023-03-30T04:59:50;3.30;;;1.67;;
58689;SDS011;44470;53.206;-6.106;2023-03-30T05:02:37;4.72;;;1.80;;
58689;SDS011;44470;53.206;-6.106;2023-03-30T05:05:38;2.75;;;1.05;;
58689;SDS011;44470;53.206;-6.106;2023-03-30T05:08:31;4.50;;;1.52;;
58689;SDS011;44470;53.206;-6.106;2023-03-30T05:11:16;2.88;;;1.38;;
58689;SDS011;44470;53.206;-6.106;2023-03-30T05:14:14;2.28;;;1.17;;
58689;SDS011;44470;53.206;-6.106;2023-03-30T05:17:06;3.55;;;1.52;;
58689;SDS011;44470;53.206;-6.106;2023-03-30T05:19:54;5.78;;;1.70;;
58689;SDS011;44470;53.206;-6.106;2023-03-30T05:22:32;2.28;;;1.48;;
58689;SDS011;44470;53.206;-6.106;2023-03-30T05:25:20;2.83;;;1.33;;
58689;SDS011;44470;53.206;-6.106;2023-03-30T05:27:53;3.45;;;1.10;;
58689;SDS011;44470;53.206;-6.106;2023-03-30T05:30:39;3.60;;;1.30;;
58689;SDS011;44470;53.206;-6.106;2023-03-30T05:33:23;3.70;;;1.45;;
58689;SDS011;44470;53.206;-6.106;2023-03-30T05:36:07;3.78;;;1.20;;
58689;SDS011;44470;53.206;-6.106;2023-03-30T05:38:54;3.38;;;1.50;;
58689;SDS011;44470;53.206;-6.106;2023-03-30T05:41:43;2.70;;;1.45;;
58689;SDS011;44470;53.206;-6.106;2023-03-30T05:44:29;3.00;;;1.50;;
58689;SDS011;44470;53.206;-6.106;2023-03-30T05:47:13;1.40;;;0.88;;
58689;SDS011;44470;53.206;-6.106;2023-03-30T05:50:03;2.58;;;1.30;;
58689;SDS011;44470;53.206;-6.106;2023-03-30T05:52:53;3.20;;;1.48;;
58689;SDS011;44470;53.206;-6.106;2023-03-30T05:55:37;2.25;;;1.45;;
58689;SDS011;44470;53.206;-6.106;2023-03-30T05:58:20;3.88;;;1.40;;
58689;SDS011;44470;53.206;-6.106;2023-03-30T06:01:05;3.35;;;1.17;;
58689;SDS011;44470;53.206;-6.106;2023-03-30T06:03:36;2.00;;;1.20;;
58689;SDS011;44470;53.206;-6.106;2023-03-30T06:06:03;3.13;;;1.30;;
58689;SDS011;44470;53.206;-6.106;2023-03-30T06:08:30;3.35;;;1.38;;
58689;SDS011;44470;53.206;-6.106;2023-03-30T06:10:58;2.03;;;1.15;;
58689;SDS011;44470;53.206;-6.106;2023-03-30T06:13:31;3.33;;;1.17;;
58689;SDS011;44470;53.206;-6.106;2023-03-30T06:15:57;2.78;;;1.42;;
58689;SDS011;44470;53.206;-6.106;2023-03-30T06:18:25;3.90;;;1.35;;
58689;SDS011;44470;53.206;-6.106;2023-03-30T06:20:59;6.30;;;1.80;;
58689;SDS011;44470;53.206;-6.106;2023-03-30T06:23:27;2.47;;;1.45;;
58689;SDS011;44470;53.206;-6.106;2023-03-30T06:25:56;3.58;;;1.45;;
58689;SDS011;44470;53.206;-6.106;2023-03-30T06:28:28;5.78;;;1.63;;
58689;SDS011;44470;53.206;-6.106;2023-03-30T06:30:53;3.35;;;1.55;;
58689;SDS011;44470;53.206;-6.106;2023-03-30T06:33:22;8.68;;;1.80;;
58689;SDS011;44470;53.206;-6.106;2023-03-30T06:35:55;5.22;;;1.45;;
58689;SDS011;44470;53.206;-6.106;2023-03-30T06:38:22;4.18;;;1.25;;
58689;SDS011;44470;53.206;-6.106;2023-03-30T06:40:51;3.45;;;1.45;;
58689;SDS011;44470;53.206;-6.106;2023-03-30T06:43:19;5.47;;;1.30;;
58689;SDS011;44470;53.206;-6.106;2023-03-30T06:46:09;2.63;;;1.30;;
58689;SDS011;44470;53.206;-6.106;2023-03-30T06:48:40;3.60;;;1.20;;
58689;SDS011;44470;53.206;-6.106;2023-03-30T06:51:32;4.15;;;1.38;;
58689;SDS011;44470;53.206;-6.106;2023-03-30T06:54:02;3.63;;;1.10;;
58689;SDS011;44470;53.206;-6.106;2023-03-30T06:56:28;3.92;;;1.27;;
58689;SDS011;44470;53.206;-6.106;2023-03-30T06:59:07;4.63;;;1.47;;
58689;SDS011;44470;53.206;-6.106;2023-03-30T07:01:52;6.63;;;1.40;;
58689;SDS011;44470;53.206;-6.106;2023-03-30T07:04:28;1.48;;;1.00;;
58689;SDS011;44470;53.206;-6.106;2023-03-30T07:07:16;5.90;;;1.35;;
58689;SDS011;44470;53.206;-6.106;2023-03-30T07:09:42;2.53;;;1.10;;
58689;SDS011;44470;53.206;-6.106;2023-03-30T07:12:08;1.30;;;0.93;;
58689;SDS011;44470;53.206;-6.106;2023-03-30T07:14:33;1.90;;;1.10;;
58689;SDS011;44470;53.206;-6.106;2023-03-30T07:16:59;2.08;;;1.00;;
58689;SDS011;44470;53.206;-6.106;2023-03-30T07:19:25;3.50;;;0.55;;
58689;SDS011;44470;53.206;-6.106;2023-03-30T07:21:50;2.88;;;0.70;;
58689;SDS011;44470;53.206;-6.106;2023-03-30T07:24:19;1.75;;;0.90;;
58689;SDS011;44470;53.206;-6.106;2023-03-30T07:26:44;1.52;;;1.20;;
58689;SDS011;44470;53.206;-6.106;2023-03-30T07:29:10;2.10;;;0.90;;
58689;SDS011;44470;53.206;-6.106;2023-03-30T07:31:39;1.45;;;0.93;;
58689;SDS011;44470;53.206;-6.106;2023-03-30T07:34:07;1.40;;;0.70;;
58689;SDS011;44470;53.206;-6.106;2023-03-30T07:36:38;2.67;;;1.17;;
58689;SDS011;44470;53.206;-6.106;2023-03-30T07:39:04;2.47;;;0.73;;
58689;SDS011;44470;53.206;-6.106;2023-03-30T07:41:34;1.85;;;0.73;;
58689;SDS011;44470;53.206;-6.106;2023-03-30T07:44:00;1.23;;;0.95;;
58689;SDS011;44470;53.206;-6.106;2023-03-30T07:46:26;1.60;;;0.82;;
58689;SDS011;44470;53.206;-6.106;2023-03-30T07:48:53;3.45;;;1.02;;
58689;SDS011;44470;53.206;-6.106;2023-03-30T07:51:19;0.85;;;0.73;;
58689;SDS011;44470;53.206;-6.106;2023-03-30T07:54:11;1.35;;;0.57;;
58689;SDS011;44470;53.206;-6.106;2023-03-30T07:56:50;2.90;;;0.63;;
58689;SDS011;44470;53.206;-6.106;2023-03-30T07:59:20;1.25;;;0.47;;
58689;SDS011;44470;53.206;-6.106;2023-03-30T08:01:47;1.48;;;0.85;;
58689;SDS011;44470;53.206;-6.106;2023-03-30T08:04:36;2.03;;;0.50;;
58689;SDS011;44470;53.206;-6.106;2023-03-30T08:07:02;2.00;;;0.65;;
58689;SDS011;44470;53.206;-6.106;2023-03-30T08:09:28;2.10;;;0.75;;
58689;SDS011;44470;53.206;-6.106;2023-03-30T08:11:55;1.02;;;0.60;;
58689;SDS011;44470;53.206;-6.106;2023-03-30T08:14:22;2.15;;;0.80;;
58689;SDS011;44470;53.206;-6.106;2023-03-30T08:16:50;2.35;;;0.50;;
58689;SDS011;44470;53.206;-6.106;2023-03-30T08:19:16;0.60;;;0.57;;
58689;SDS011;44470;53.206;-6.106;2023-03-30T08:21:41;1.17;;;0.50;;
58689;SDS011;44470;53.206;-6.106;2023-03-30T08:24:07;1.20;;;0.50;;
58689;SDS011;44470;53.206;-6.106;2023-03-30T08:26:33;0.60;;;0.47;;
58689;SDS011;44470;53.206;-6.106;2023-03-30T08:29:00;1.05;;;0.77;;
58689;SDS011;44470;53.206;-6.106;2023-03-30T08:31:26;1.17;;;0.52;;
58689;SDS011;44470;53.206;-6.106;2023-03-30T08:33:52;1.17;;;0.40;;
58689;SDS011;44470;53.206;-6.106;2023-03-30T08:36:17;1.52;;;0.60;;
58689;SDS011;44470;53.206;-6.106;2023-03-30T08:38:44;0.63;;;0.40;;
58689;SDS011;44470;53.206;-6.106;2023-03-30T08:43:58;1.30;;;0.88;;
58689;SDS011;44470;53.206;-6.106;2023-03-30T08:46:25;1.02;;;0.70;;
58689;SDS011;44470;53.206;-6.106;2023-03-30T08:48:53;1.65;;;0.52;;
58689;SDS011;44470;53.206;-6.106;2023-03-30T08:51:31;2.28;;;0.68;;
58689;SDS011;44470;53.206;-6.106;2023-03-30T08:54:00;1.10;;;0.60;;
58689;SDS011;44470;53.206;-6.106;2023-03-30T08:56:30;1.83;;;0.70;;
58689;SDS011;44470;53.206;-6.106;2023-03-30T09:07:21;1.30;;;0.80;;
58689;SDS011;44470;53.206;-6.106;2023-03-30T09:09:48;3.90;;;0.95;;
58689;SDS011;44470;53.206;-6.106;2023-03-30T09:14:52;7.20;;;1.30;;
58689;SDS011;44470;53.206;-6.106;2023-03-30T09:17:24;1.02;;;0.65;;
58689;SDS011;44470;53.206;-6.106;2023-03-30T09:20:05;4.35;;;0.95;;
58689;SDS011;44470;53.206;-6.106;2023-03-30T09:22:38;2.10;;;1.17;;
58689;SDS011;44470;53.206;-6.106;2023-03-30T09:27:57;5.28;;;0.93;;
58689;SDS011;44470;53.206;-6.106;2023-03-30T09:30:33;3.22;;;0.95;;
58689;SDS011;44470;53.206;-6.106;2023-03-30T09:38:56;4.57;;;1.20;;
58689;SDS011;44470;53.206;-6.106;2023-03-30T09:41:39;4.50;;;1.15;;
58689;SDS011;44470;53.206;-6.106;2023-03-30T09:44:21;7.05;;;0.88;;
58689;SDS011;44470;53.206;-6.106;2023-03-30T09:46:53;5.47;;;1.27;;
58689;SDS011;44470;53.206;-6.106;2023-03-30T09:49:23;4.82;;;1.17;;
58689;SDS011;44470;53.206;-6.106;2023-03-30T09:51:53;1.95;;;0.80;;
58689;SDS011;44470;53.206;-6.106;2023-03-30T09:54:21;7.80;;;1.40;;
58689;SDS011;44470;53.206;-6.106;2023-03-30T09:56:47;8.05;;;1.83;;
58689;SDS011;44470;53.206;-6.106;2023-03-30T09:59:29;7.15;;;1.13;;
58689;SDS011;44470;53.206;-6.106;2023-03-30T10:04:36;7.38;;;1.58;;
58689;SDS011;44470;53.206;-6.106;2023-03-30T10:07:39;6.93;;;1.27;;
58689;SDS011;44470;53.206;-6.106;2023-03-30T10:12:54;7.70;;;1.25;;
58689;SDS011;44470;53.206;-6.106;2023-03-30T10:15:26;7.70;;;1.23;;
58689;SDS011;44470;53.206;-6.106;2023-03-30T10:17:59;4.82;;;1.13;;
58689;SDS011;44470;53.206;-6.106;2023-03-30T10:20:33;5.20;;;1.08;;
58689;SDS011;44470;53.206;-6.106;2023-03-30T10:23:04;3.95;;;1.38;;
58689;SDS011;44470;53.206;-6.106;2023-03-30T10:25:39;4.38;;;1.10;;
58689;SDS011;44470;53.206;-6.106;2023-03-30T10:28:25;7.22;;;1.08;;
58689;SDS011;44470;53.206;-6.106;2023-03-30T10:30:53;6.95;;;1.40;;
58689;SDS011;44470;53.206;-6.106;2023-03-30T10:33:21;8.05;;;0.80;;
58689;SDS011;44470;53.206;-6.106;2023-03-30T10:35:49;11.25;;;1.38;;
58689;SDS011;44470;53.206;-6.106;2023-03-30T10:38:20;5.30;;;1.20;;
58689;SDS011;44470;53.206;-6.106;2023-03-30T10:40:47;5.82;;;1.75;;
58689;SDS011;44470;53.206;-6.106;2023-03-30T10:43:24;4.97;;;0.93;;
58689;SDS011;44470;53.206;-6.106;2023-03-30T10:45:56;6.10;;;1.50;;
58689;SDS011;44470;53.206;-6.106;2023-03-30T10:50:59;7.82;;;1.35;;
58689;SDS011;44470;53.206;-6.106;2023-03-30T10:53:38;4.05;;;0.95;;
58689;SDS011;44470;53.206;-6.106;2023-03-30T11:01:24;6.18;;;1.20;;
58689;SDS011;44470;53.206;-6.106;2023-03-30T11:03:55;3.85;;;1.60;;
58689;SDS011;44470;53.206;-6.106;2023-03-30T11:06:33;9.77;;;1.58;;
58689;SDS011;44470;53.206;-6.106;2023-03-30T11:09:04;7.20;;;1.42;;
58689;SDS011;44470;53.206;-6.106;2023-03-30T11:11:39;5.85;;;1.15;;
58689;SDS011;44470;53.206;-6.106;2023-03-30T11:14:11;4.35;;;1.23;;
58689;SDS011;44470;53.206;-6.106;2023-03-30T11:16:51;9.23;;;1.50;;
58689;SDS011;44470;53.206;-6.106;2023-03-30T11:22:46;8.63;;;2.15;;
58689;SDS011;44470;53.206;-6.106;2023-03-30T11:25:17;7.85;;;1.55;;
58689;SDS011;44470;53.206;-6.106;2023-03-30T11:30:36;5.93;;;1.98;;
58689;SDS011;44470;53.206;-6.106;2023-03-30T11:36:24;8.10;;;1.42;;
58689;SDS011;44470;53.206;-6.106;2023-03-30T11:39:04;5.53;;;1.80;;
58689;SDS011;44470;53.206;-6.106;2023-03-30T11:41:39;8.23;;;1.80;;
58689;SDS011;44470;53.206;-6.106;2023-03-30T11:44:09;6.07;;;2.00;;
58689;SDS011;44470;53.206;-6.106;2023-03-30T11:55:16;7.50;;;1.90;;
58689;SDS011;44470;53.206;-6.106;2023-03-30T11:57:44;8.85;;;2.25;;
58689;SDS011;44470;53.206;-6.106;2023-03-30T12:09:05;9.68;;;2.00;;
58689;SDS011;44470;53.206;-6.106;2023-03-30T12:20:20;5.03;;;1.50;;
58689;SDS011;44470;53.206;-6.106;2023-03-30T12:28:16;11.55;;;1.80;;
58689;SDS011;44470;53.206;-6.106;2023-03-30T12:30:45;11.05;;;1.40;;
58689;SDS011;44470;53.206;-6.106;2023-03-30T12:38:51;12.85;;;1.70;;
58689;SDS011;44470;53.206;-6.106;2023-03-30T12:41:26;18.08;;;2.15;;
58689;SDS011;44470;53.206;-6.106;2023-03-30T12:47:15;12.63;;;1.67;;
58689;SDS011;44470;53.206;-6.106;2023-03-30T12:50:28;11.95;;;1.85;;
58689;SDS011;44470;53.206;-6.106;2023-03-30T13:03:36;7.47;;;1.50;;
58689;SDS011;44470;53.206;-6.106;2023-03-30T13:06:03;5.60;;;1.50;;
58689;SDS011;44470;53.206;-6.106;2023-03-30T13:08:37;5.47;;;1.42;;
58689;SDS011;44470;53.206;-6.106;2023-03-30T13:14:14;8.18;;;1.95;;
58689;SDS011;44470;53.206;-6.106;2023-03-30T13:24:44;3.80;;;1.23;;
58689;SDS011;44470;53.206;-6.106;2023-03-30T13:29:55;9.82;;;1.50;;
58689;SDS011;44470;53.206;-6.106;2023-03-30T13:43:49;5.07;;;1.48;;
58689;SDS011;44470;53.206;-6.106;2023-03-30T13:46:38;4.35;;;1.50;;
58689;SDS011;44470;53.206;-6.106;2023-03-30T13:52:03;5.65;;;1.20;;
58689;SDS011;44470;53.206;-6.106;2023-03-30T13:54:33;3.53;;;1.10;;
58689;SDS011;44470;53.206;-6.106;2023-03-30T13:57:05;6.25;;;1.20;;
58689;SDS011;44470;53.206;-6.106;2023-03-30T13:59:34;5.13;;;1.40;;
58689;SDS011;44470;53.206;-6.106;2023-03-30T14:02:05;3.08;;;1.08;;
58689;SDS011;44470;53.206;-6.106;2023-03-30T14:04:36;3.25;;;0.82;;
58689;SDS011;44470;53.206;-6.106;2023-03-30T14:07:04;2.95;;;0.95;;
58689;SDS011;44470;53.206;-6.106;2023-03-30T14:09:38;3.70;;;1.13;;
58689;SDS011;44470;53.206;-6.106;2023-03-30T14:12:03;3.28;;;0.85;;
58689;SDS011;44470;53.206;-6.106;2023-03-30T14:16:56;3.45;;;1.35;;
58689;SDS011;44470;53.206;-6.106;2023-03-30T14:19:27;4.85;;;1.25;;
58689;SDS011;44470;53.206;-6.106;2023-03-30T14:22:03;3.33;;;1.25;;
58689;SDS011;44470;53.206;-6.106;2023-03-30T14:24:36;4.07;;;1.30;;
58689;SDS011;44470;53.206;-6.106;2023-03-30T14:27:04;3.90;;;1.15;;
58689;SDS011;44470;53.206;-6.106;2023-03-30T14:29:42;3.80;;;1.38;;
58689;SDS011;44470;53.206;-6.106;2023-03-30T14:32:13;2.15;;;1.05;;
58689;SDS011;44470;53.206;-6.106;2023-03-30T14:34:44;4.50;;;1.40;;
58689;SDS011;44470;53.206;-6.106;2023-03-30T14:37:13;3.25;;;1.35;;
58689;SDS011;44470;53.206;-6.106;2023-03-30T14:39:40;2.83;;;1.20;;
58689;SDS011;44470;53.206;-6.106;2023-03-30T14:42:11;2.38;;;1.30;;
58689;SDS011;44470;53.206;-6.106;2023-03-30T14:44:38;5.95;;;1.55;;
58689;SDS011;44470;53.206;-6.106;2023-03-30T14:47:05;3.20;;;1.05;;
58689;SDS011;44470;53.206;-6.106;2023-03-30T14:49:32;5.38;;;1.42;;
58689;SDS011;44470;53.206;-6.106;2023-03-30T14:51:59;2.35;;;1.30;;
58689;SDS011;44470;53.206;-6.106;2023-03-30T14:54:26;3.70;;;1.38;;
58689;SDS011;44470;53.206;-6.106;2023-03-30T14:56:56;3.13;;;1.23;;
58689;SDS011;44470;53.206;-6.106;2023-03-30T14:59:24;4.63;;;1.50;;
58689;SDS011;44470;53.206;-6.106;2023-03-30T15:01:51;4.90;;;1.00;;
58689;SDS011;44470;53.206;-6.106;2023-03-30T15:04:28;2.60;;;1.20;;
58689;SDS011;44470;53.206;-6.106;2023-03-30T15:06:58;3.53;;;1.30;;
58689;SDS011;44470;53.206;-6.106;2023-03-30T15:09:24;4.43;;;1.60;;
58689;SDS011;44470;53.206;-6.106;2023-03-30T15:11:51;4.15;;;1.00;;
58689;SDS011;44470;53.206;-6.106;2023-03-30T15:14:18;3.10;;;1.58;;
58689;SDS011;44470;53.206;-6.106;2023-03-30T15:16:46;2.53;;;1.00;;
58689;SDS011;44470;53.206;-6.106;2023-03-30T15:21:53;2.83;;;1.25;;
58689;SDS011;44470;53.206;-6.106;2023-03-30T15:24:23;5.45;;;1.40;;
58689;SDS011;44470;53.206;-6.106;2023-03-30T15:26:50;2.28;;;1.15;;
58689;SDS011;44470;53.206;-6.106;2023-03-30T15:29:19;2.43;;;1.37;;
58689;SDS011;44470;53.206;-6.106;2023-03-30T15:31:48;4.10;;;1.65;;
58689;SDS011;44470;53.206;-6.106;2023-03-30T15:34:55;3.78;;;1.25;;
58689;SDS011;44470;53.206;-6.106;2023-03-30T15:37:27;2.13;;;1.23;;
58689;SDS011;44470;53.206;-6.106;2023-03-30T15:39:52;3.28;;;1.35;;
58689;SDS011;44470;53.206;-6.106;2023-03-30T15:42:26;3.50;;;1.13;;
58689;SDS011;44470;53.206;-6.106;2023-03-30T15:45:08;1.90;;;1.30;;
58689;SDS011;44470;53.206;-6.106;2023-03-30T15:47:35;9.20;;;1.60;;
58689;SDS011;44470;53.206;-6.106;2023-03-30T15:50:02;6.97;;;1.50;;
58689;SDS011;44470;53.206;-6.106;2023-03-30T15:52:32;6.03;;;1.35;;
58689;SDS011;44470;53.206;-6.106;2023-03-30T15:55:04;11.30;;;2.13;;
58689;SDS011;44470;53.206;-6.106;2023-03-30T15:57:33;14.50;;;1.80;;
58689;SDS011;44470;53.206;-6.106;2023-03-30T16:00:04;8.50;;;2.00;;
58689;SDS011;44470;53.206;-6.106;2023-03-30T16:05:03;11.30;;;1.85;;
58689;SDS011;44470;53.206;-6.106;2023-03-30T16:07:31;8.20;;;2.40;;
58689;SDS011;44470;53.206;-6.106;2023-03-30T16:09:58;27.98;;;3.75;;
58689;SDS011;44470;53.206;-6.106;2023-03-30T16:12:25;15.77;;;2.45;;
58689;SDS011;44470;53.206;-6.106;2023-03-30T16:14:52;19.05;;;2.67;;
58689;SDS011;44470;53.206;-6.106;2023-03-30T16:17:18;15.50;;;2.05;;
58689;SDS011;44470;53.206;-6.106;2023-03-30T16:19:44;12.98;;;2.15;;
58689;SDS011;44470;53.206;-6.106;2023-03-30T16:22:10;10.82;;;2.28;;
58689;SDS011;44470;53.206;-6.106;2023-03-30T16:24:37;15.95;;;2.20;;
58689;SDS011;44470;53.206;-6.106;2023-03-30T16:27:03;13.70;;;2.20;;
58689;SDS011;44470;53.206;-6.106;2023-03-30T16:29:30;11.45;;;2.00;;
58689;SDS011;44470;53.206;-6.106;2023-03-30T16:31:56;13.68;;;2.55;;
58689;SDS011;44470;53.206;-6.106;2023-03-30T16:34:22;6.82;;;1.95;;
58689;SDS011;44470;53.206;-6.106;2023-03-30T16:36:48;11.13;;;2.05;;
58689;SDS011;44470;53.206;-6.106;2023-03-30T16:41:45;8.02;;;2.00;;
58689;SDS011;44470;53.206;-6.106;2023-03-30T16:44:14;9.73;;;1.73;;
58689;SDS011;44470;53.206;-6.106;2023-03-30T16:46:43;12.35;;;1.85;;
58689;SDS011;44470;53.206;-6.106;2023-03-30T16:49:17;12.52;;;1.65;;
58689;SDS011;44470;53.206;-6.106;2023-03-30T16:51:48;7.68;;;1.90;;
58689;SDS011;44470;53.206;-6.106;2023-03-30T16:54:15;13.35;;;2.10;;
58689;SDS011;44470;53.206;-6.106;2023-03-30T16:56:41;4.07;;;1.35;;
58689;SDS011;44470;53.206;-6.106;2023-03-30T16:59:19;10.07;;;2.17;;
58689;SDS011;44470;53.206;-6.106;2023-03-30T17:01:46;8.57;;;1.85;;
58689;SDS011;44470;53.206;-6.106;2023-03-30T17:04:11;7.57;;;2.28;;
58689;SDS011;44470;53.206;-6.106;2023-03-30T17:06:37;9.80;;;2.20;;
58689;SDS011;44470;53.206;-6.106;2023-03-30T17:09:02;8.80;;;1.67;;
58689;SDS011;44470;53.206;-6.106;2023-03-30T17:11:28;8.85;;;1.80;;
58689;SDS011;44470;53.206;-6.106;2023-03-30T17:13:53;7.03;;;2.03;;
58689;SDS011;44470;53.206;-6.106;2023-03-30T17:16:19;8.57;;;1.90;;
58689;SDS011;44470;53.206;-6.106;2023-03-30T17:18:45;6.53;;;1.67;;
58689;SDS011;44470;53.206;-6.106;2023-03-30T17:21:11;3.92;;;1.60;;
58689;SDS011;44470;53.206;-6.106;2023-03-30T17:23:40;6.97;;;1.63;;
58689;SDS011;44470;53.206;-6.106;2023-03-30T17:26:08;10.15;;;1.98;;
58689;SDS011;44470;53.206;-6.106;2023-03-30T17:28:35;7.72;;;2.10;;
58689;SDS011;44470;53.206;-6.106;2023-03-30T17:31:04;6.63;;;1.77;;
58689;SDS011;44470;53.206;-6.106;2023-03-30T17:33:36;9.27;;;2.22;;
58689;SDS011;44470;53.206;-6.106;2023-03-30T17:36:13;2.83;;;1.92;;
58689;SDS011;44470;53.206;-6.106;2023-03-30T17:38:42;5.38;;;1.67;;
58689;SDS011;44470;53.206;-6.106;2023-03-30T17:41:09;5.75;;;1.58;;
58689;SDS011;44470;53.206;-6.106;2023-03-30T17:43:37;5.47;;;2.07;;
58689;SDS011;44470;53.206;-6.106;2023-03-30T17:46:04;5.57;;;1.67;;
58689;SDS011;44470;53.206;-6.106;2023-03-30T17:48:30;11.15;;;2.28;;
58689;SDS011;44470;53.206;-6.106;2023-03-30T17:50:55;6.72;;;1.95;;
58689;SDS011;44470;53.206;-6.106;2023-03-30T17:53:21;8.70;;;2.58;;
58689;SDS011;44470;53.206;-6.106;2023-03-30T17:55:48;5.22;;;2.28;;
58689;SDS011;44470;53.206;-6.106;2023-03-30T17:58:19;4.85;;;2.03;;